KDEH

Decorah Municipal Airport

Decorah, Iowa, USA
METAR KDEH 201615Z AUTO 05007G13KT 010V070 9SM FEW016 FEW041 22/21 A2984 RMK AO2
Observed Flight Rules
Aug-20 @ 16:15 UTC (8 minutes ago) Visual Flight Rules
Wind Visibility Clouds
50° at 7 knots
 Gusting to 13 knots
9 miles
  • Few at 1,600' AGL
  • Few at 4,100' AGL
Temperatures Readings
Current 22°C / 72°F
Dewpoint 21°C / 70°F
Humidity 94%
Altimeter 29.84" Hg
Pressure 1010 hPa
Elevation 353
METAR KDEH 201615Z AUTO 05007G13KT 010V070 9SM FEW016 FEW041 22/21 A2984 RMK AO2
Observed Flight Rules
Aug-20 @ 16:15 UTC
(8 minutes ago)
VFR
Wind Visibility
50° at 7 knots
 Gusting to 13 knots
9 miles
Clouds
  • Few at 1,600' AGL
  • Few at 4,100' AGL
Temperature Dewpoint
22°C / 72°F 21°C / 70°F
Humidity Altimeter Pressure
94% 29.84" Hg 1010 hPa